createdAt,value
2019-02-17T00:00:52.421Z,6.16
2019-02-17T00:03:21.461Z,6.10
2019-02-17T00:05:50.484Z,6.03
2019-02-17T00:08:19.928Z,6.03
2019-02-17T00:10:48.956Z,6.00
2019-02-17T00:13:17.983Z,5.95
2019-02-17T00:15:47.317Z,5.90
2019-02-17T00:18:16.367Z,5.83
2019-02-17T00:20:45.478Z,5.79
2019-02-17T00:23:14.811Z,5.74
2019-02-17T00:25:44.167Z,5.72
2019-02-17T00:28:13.188Z,5.68
2019-02-17T00:30:42.549Z,5.65
2019-02-17T00:33:11.586Z,5.78
2019-02-17T00:35:41.025Z,5.77
2019-02-17T00:38:10.392Z,5.72
2019-02-17T00:40:39.403Z,5.65
2019-02-17T00:43:08.505Z,5.63
2019-02-17T00:45:37.516Z,5.61
2019-02-17T00:48:06.642Z,5.59
2019-02-17T00:50:36.566Z,5.55
2019-02-17T00:53:06.287Z,5.53
2019-02-17T00:55:35.591Z,5.53
2019-02-17T00:58:04.852Z,5.53
2019-02-17T01:00:34.216Z,5.55
2019-02-17T01:03:03.276Z,5.53
2019-02-17T01:05:32.620Z,5.52
2019-02-17T01:08:01.687Z,5.52
2019-02-17T01:10:31.365Z,5.49
2019-02-17T01:13:00.356Z,5.51
2019-02-17T01:15:30.289Z,5.46
2019-02-17T01:17:59.644Z,5.42
2019-02-17T01:20:28.793Z,5.38
2019-02-17T01:22:57.842Z,5.29
2019-02-17T01:25:27.000Z,5.22
2019-02-17T01:27:56.045Z,5.06
2019-02-17T01:30:25.334Z,4.93
2019-02-17T01:32:54.340Z,4.86
2019-02-17T01:35:23.395Z,4.76
2019-02-17T01:37:52.415Z,4.65
2019-02-17T01:40:21.507Z,4.57
2019-02-17T01:42:50.549Z,4.53
2019-02-17T01:45:19.566Z,4.52
2019-02-17T01:47:48.994Z,4.55
2019-02-17T01:50:17.986Z,4.54
2019-02-17T01:52:47.390Z,4.60
2019-02-17T01:55:16.824Z,4.66
2019-02-17T01:57:45.894Z,4.56
2019-02-17T02:00:15.161Z,4.41
2019-02-17T02:02:44.495Z,4.35
2019-02-17T02:05:13.806Z,4.36
2019-02-17T02:07:42.830Z,4.57
2019-02-17T02:10:11.967Z,4.62
2019-02-17T02:12:41.321Z,4.49
2019-02-17T02:15:10.615Z,4.40
2019-02-17T02:17:40.023Z,4.35
2019-02-17T02:20:10.285Z,4.36
2019-02-17T02:22:39.509Z,4.32
2019-02-17T02:25:08.523Z,4.36
2019-02-17T02:27:37.632Z,4.43
2019-02-17T02:30:08.275Z,4.47
2019-02-17T02:32:37.546Z,4.50
2019-02-17T02:35:07.000Z,4.58
2019-02-17T02:37:37.054Z,4.61
2019-02-17T02:40:06.561Z,4.68
2019-02-17T02:42:35.601Z,4.74
2019-02-17T02:45:05.524Z,4.80
2019-02-17T02:47:35.025Z,4.83
2019-02-17T02:50:04.435Z,4.98
2019-02-17T02:52:33.444Z,5.00
2019-02-17T02:55:02.484Z,4.92
2019-02-17T02:57:31.543Z,4.79
2019-02-17T03:00:00.982Z,4.68
2019-02-17T03:02:30.098Z,4.55
2019-02-17T03:04:59.482Z,4.47
2019-02-17T03:07:28.846Z,4.43
2019-02-17T03:09:58.167Z,4.37
2019-02-17T03:12:27.260Z,4.35
2019-02-17T03:14:56.581Z,4.34
2019-02-17T03:17:26.287Z,4.46
2019-02-17T03:19:55.287Z,4.48
2019-02-17T03:22:24.405Z,4.52
2019-02-17T03:24:53.788Z,4.48
2019-02-17T03:27:22.883Z,4.42
2019-02-17T03:30:04.086Z,4.36
2019-02-17T03:32:23.474Z,4.32
2019-02-17T03:34:52.563Z,4.25
2019-02-17T03:37:21.564Z,4.19
2019-02-17T03:39:50.814Z,4.10
2019-02-17T03:42:19.838Z,3.99
2019-02-17T03:44:48.919Z,3.98
2019-02-17T03:47:17.972Z,3.97
2019-02-17T03:49:47.416Z,3.98
2019-02-17T03:52:16.433Z,4.01
2019-02-17T03:54:45.463Z,4.10
2019-02-17T03:57:14.457Z,4.21
2019-02-17T03:59:44.614Z,4.26
2019-02-17T04:02:13.747Z,4.28
2019-02-17T04:04:42.776Z,4.24
2019-02-17T04:07:11.839Z,4.17
2019-02-17T04:09:41.367Z,4.14
2019-02-17T04:12:10.370Z,4.05
2019-02-17T04:14:39.925Z,4.01
2019-02-17T04:17:08.940Z,3.91
2019-02-17T04:19:38.304Z,3.78
2019-02-17T04:22:07.308Z,3.68
2019-02-17T04:24:36.465Z,3.62
2019-02-17T04:27:05.491Z,3.60
2019-02-17T04:29:35.188Z,3.57
2019-02-17T04:32:04.207Z,3.63
2019-02-17T04:34:33.557Z,3.63
2019-02-17T04:37:02.500Z,3.71
2019-02-17T04:39:31.531Z,3.88
2019-02-17T04:42:00.551Z,4.14
2019-02-17T04:44:29.556Z,4.13
2019-02-17T04:46:58.589Z,4.07
2019-02-17T04:49:27.636Z,4.10
2019-02-17T04:51:56.668Z,4.00
2019-02-17T04:54:26.052Z,3.86
2019-02-17T04:56:55.461Z,3.74
2019-02-17T04:59:24.578Z,3.66
2019-02-17T05:01:53.624Z,3.88
2019-02-17T05:04:22.731Z,3.91
2019-02-17T05:06:51.860Z,3.92
2019-02-17T05:09:20.981Z,3.95
2019-02-17T05:11:50.618Z,3.95
2019-02-17T05:14:19.987Z,3.95
2019-02-17T05:16:49.350Z,3.99
2019-02-17T05:19:18.759Z,4.00
2019-02-17T05:21:49.385Z,4.06
2019-02-17T05:24:18.885Z,4.12
2019-02-17T05:26:47.882Z,4.19
2019-02-17T05:29:16.940Z,4.21
2019-02-17T05:31:45.966Z,4.26
2019-02-17T05:34:15.078Z,4.38
2019-02-17T05:36:44.848Z,4.48
2019-02-17T05:39:14.267Z,4.59
2019-02-17T05:41:43.289Z,4.51
2019-02-17T05:44:12.390Z,4.42
2019-02-17T05:46:41.509Z,4.36
2019-02-17T05:49:10.535Z,4.26
2019-02-17T05:51:39.869Z,4.21
2019-02-17T05:54:08.913Z,4.31
2019-02-17T05:56:37.987Z,4.41
2019-02-17T05:59:07.079Z,4.45
2019-02-17T06:01:36.152Z,4.61
2019-02-17T06:04:05.550Z,4.63
2019-02-17T06:06:34.989Z,4.69
2019-02-17T06:09:05.311Z,4.66
2019-02-17T06:11:34.491Z,4.70
2019-02-17T06:14:03.976Z,4.66
2019-02-17T06:16:33.048Z,4.59
2019-02-17T06:19:02.297Z,4.57
2019-02-17T06:21:31.945Z,4.51
2019-02-17T06:24:01.318Z,4.55
2019-02-17T06:26:30.364Z,4.44
2019-02-17T06:28:59.685Z,4.32
2019-02-17T06:31:28.911Z,4.20
2019-02-17T06:33:58.881Z,4.18
2019-02-17T06:36:27.917Z,4.40
2019-02-17T06:38:56.951Z,4.31
2019-02-17T06:41:26.301Z,4.35
2019-02-17T06:43:55.624Z,4.32
2019-02-17T06:46:28.751Z,4.36
2019-02-17T06:48:57.853Z,4.21
2019-02-17T06:51:27.182Z,4.28
2019-02-17T06:53:56.253Z,4.37
2019-02-17T06:56:50.089Z,4.32
2019-02-17T06:59:19.143Z,4.28
2019-02-17T07:01:48.153Z,4.30
2019-02-17T07:04:17.792Z,4.31
2019-02-17T07:06:57.627Z,4.39
2019-02-17T07:09:26.733Z,4.36
2019-02-17T07:11:56.817Z,4.32
2019-02-17T07:14:26.526Z,4.19
2019-02-17T07:16:55.591Z,4.20
2019-02-17T07:19:25.038Z,4.20
2019-02-17T07:21:54.068Z,4.33
2019-02-17T07:24:23.087Z,4.32
2019-02-17T07:26:52.449Z,4.36
2019-02-17T07:29:21.866Z,4.22
2019-02-17T07:31:50.973Z,4.20
2019-02-17T07:34:20.548Z,4.33
2019-02-17T07:36:49.654Z,4.38
2019-02-17T07:39:18.918Z,4.58
2019-02-17T07:41:47.952Z,4.67
2019-02-17T07:44:16.984Z,4.79
2019-02-17T07:46:46.329Z,4.87
2019-02-17T07:49:15.694Z,4.91
2019-02-17T07:51:44.734Z,4.94
2019-02-17T07:54:14.102Z,5.01
2019-02-17T07:56:43.178Z,5.07
2019-02-17T07:59:12.222Z,5.10
2019-02-17T08:01:45.332Z,5.01
2019-02-17T08:04:12.499Z,4.91
2019-02-17T08:06:41.504Z,4.97
2019-02-17T08:09:10.526Z,5.03
2019-02-17T08:11:39.555Z,5.20
2019-02-17T08:14:08.689Z,5.39
2019-02-17T08:16:37.708Z,5.58
2019-02-17T08:19:06.758Z,5.83
2019-02-17T08:21:35.807Z,6.01
2019-02-17T08:24:04.822Z,6.10
2019-02-17T08:26:34.283Z,6.28
2019-02-17T08:29:03.412Z,6.32
2019-02-17T08:31:32.646Z,6.52
2019-02-17T08:34:01.982Z,6.59
2019-02-17T08:36:31.285Z,6.75
2019-02-17T08:39:00.443Z,6.86
2019-02-17T08:41:29.589Z,6.97
2019-02-17T08:44:00.860Z,7.08
2019-02-17T08:46:29.392Z,7.25
2019-02-17T08:48:58.568Z,7.42
2019-02-17T08:51:27.598Z,7.55
2019-02-17T08:53:56.639Z,7.72
2019-02-17T08:56:25.698Z,8.19
2019-02-17T08:58:58.066Z,9.26
2019-02-17T09:01:28.731Z,9.94
2019-02-17T09:03:58.262Z,10.41
2019-02-17T09:06:27.483Z,10.41
2019-02-17T09:08:59.633Z,10.06
2019-02-17T09:11:29.017Z,10.06
2019-02-17T09:13:58.114Z,10.18
2019-02-17T09:16:27.171Z,10.58
2019-02-17T09:18:56.281Z,10.91
2019-02-17T09:21:25.295Z,11.37
2019-02-17T09:23:55.987Z,11.72
2019-02-17T09:26:25.314Z,12.01
2019-02-17T09:28:54.414Z,12.66
2019-02-17T09:31:23.449Z,12.60
2019-02-17T09:33:53.384Z,12.91
2019-02-17T09:36:22.745Z,13.14
2019-02-17T09:38:51.826Z,13.29
2019-02-17T09:41:20.844Z,13.80
2019-02-17T09:43:49.873Z,13.51
2019-02-17T09:46:18.901Z,13.75
2019-02-17T09:48:47.964Z,13.83
2019-02-17T09:51:17.664Z,14.05
2019-02-17T09:53:46.672Z,14.48
2019-02-17T09:56:15.709Z,14.64
2019-02-17T09:58:44.744Z,14.80
2019-02-17T10:01:13.751Z,15.00
2019-02-17T10:03:42.797Z,15.55
2019-02-17T10:06:12.308Z,15.85
2019-02-17T10:08:42.055Z,15.71
2019-02-17T10:11:11.149Z,16.55
2019-02-17T10:13:40.172Z,16.78
2019-02-17T10:16:09.216Z,16.48
2019-02-17T10:18:38.266Z,16.39
2019-02-17T10:21:07.343Z,16.22
2019-02-17T10:23:37.112Z,15.76
2019-02-17T10:26:06.138Z,16.20
2019-02-17T10:28:42.103Z,16.64
2019-02-17T10:31:05.963Z,17.40
2019-02-17T10:33:35.022Z,17.89
2019-02-17T10:36:04.189Z,17.25
2019-02-17T10:38:33.257Z,17.25
2019-02-17T10:41:02.354Z,19.02
2019-02-17T10:43:31.752Z,18.58
2019-02-17T10:46:01.117Z,17.83
2019-02-17T10:48:30.201Z,17.59
2019-02-17T10:50:59.609Z,17.21
2019-02-17T10:53:29.419Z,17.93
2019-02-17T10:55:58.481Z,18.19
2019-02-17T10:58:27.517Z,17.17
2019-02-17T11:00:56.520Z,16.86
2019-02-17T11:03:25.599Z,16.85
2019-02-17T11:05:54.959Z,17.38
2019-02-17T11:08:24.075Z,17.37
2019-02-17T11:10:53.087Z,18.03
2019-02-17T11:13:22.157Z,18.18
2019-02-17T11:15:51.164Z,18.02
2019-02-17T11:18:20.498Z,18.64
2019-02-17T11:20:49.819Z,18.32
2019-02-17T11:23:18.851Z,18.29
2019-02-17T11:25:47.976Z,18.18
2019-02-17T11:28:17.289Z,18.43
2019-02-17T11:30:46.335Z,17.93
2019-02-17T11:33:15.689Z,18.58
2019-02-17T11:35:44.713Z,19.34
2019-02-17T11:38:13.738Z,18.81
2019-02-17T11:40:42.796Z,18.47
2019-02-17T11:43:12.113Z,18.20
2019-02-17T11:45:41.499Z,18.91
2019-02-17T11:48:10.543Z,19.69
2019-02-17T11:50:39.857Z,20.86
2019-02-17T11:53:09.213Z,20.83
2019-02-17T11:55:38.240Z,20.85
2019-02-17T11:58:07.829Z,20.28
2019-02-17T12:00:36.854Z,20.51
2019-02-17T12:03:08.234Z,20.35
2019-02-17T12:05:36.733Z,19.23
2019-02-17T12:08:05.817Z,18.52
2019-02-17T12:10:34.887Z,17.84
2019-02-17T12:13:04.163Z,17.63
2019-02-17T12:15:33.196Z,17.93
2019-02-17T12:18:02.226Z,18.94
2019-02-17T12:20:46.811Z,18.41
2019-02-17T12:23:19.646Z,19.06
2019-02-17T12:25:55.932Z,18.72
2019-02-17T12:28:44.167Z,17.59
2019-02-17T12:31:18.251Z,18.47
2019-02-17T12:33:47.285Z,18.94
2019-02-17T12:36:16.328Z,19.16
2019-02-17T12:38:45.385Z,18.69
2019-02-17T12:41:14.593Z,18.05
2019-02-17T12:43:43.895Z,17.39
2019-02-17T12:46:13.284Z,18.02
2019-02-17T12:48:42.389Z,18.32
2019-02-17T12:51:11.711Z,17.83
2019-02-17T12:53:41.035Z,18.18
2019-02-17T12:56:10.073Z,18.06
2019-02-17T12:58:39.121Z,18.85
2019-02-17T13:01:08.509Z,18.72
2019-02-17T13:03:37.577Z,19.02
2019-02-17T13:06:06.693Z,18.68
2019-02-17T13:08:35.781Z,17.58
2019-02-17T13:11:04.944Z,18.19
2019-02-17T13:13:34.003Z,17.59
2019-02-17T13:16:03.038Z,16.58
2019-02-17T13:18:32.021Z,16.13
2019-02-17T13:21:01.067Z,16.34
2019-02-17T13:23:30.169Z,16.59
2019-02-17T13:25:59.293Z,17.53
2019-02-17T13:28:28.323Z,17.12
2019-02-17T13:30:57.445Z,17.82
2019-02-17T13:33:26.752Z,17.64
2019-02-17T13:35:55.869Z,18.33
2019-02-17T13:38:24.918Z,17.87
2019-02-17T13:40:54.321Z,17.60
2019-02-17T13:43:23.353Z,17.76
2019-02-17T13:45:52.620Z,17.92
2019-02-17T13:48:25.433Z,18.22
2019-02-17T13:50:54.526Z,18.46
2019-02-17T13:53:23.642Z,18.77
2019-02-17T13:55:52.918Z,17.94
2019-02-17T13:58:22.223Z,17.95
2019-02-17T14:00:51.283Z,17.42
2019-02-17T14:03:20.602Z,18.02
2019-02-17T14:05:49.654Z,18.13
2019-02-17T14:08:18.697Z,18.29
2019-02-17T14:10:48.043Z,17.66
2019-02-17T14:13:17.061Z,18.22
2019-02-17T14:15:46.145Z,17.43
2019-02-17T14:18:15.208Z,17.86
2019-02-17T14:20:44.563Z,17.78
2019-02-17T14:23:13.859Z,16.88
2019-02-17T14:25:42.903Z,16.82
2019-02-17T14:28:11.937Z,17.14
2019-02-17T14:30:40.941Z,16.86
2019-02-17T14:33:10.101Z,17.01
2019-02-17T14:35:39.453Z,16.74
2019-02-17T14:38:08.898Z,16.96
2019-02-17T14:40:37.943Z,17.33
2019-02-17T14:43:07.383Z,16.83
2019-02-17T14:45:36.392Z,16.51
2019-02-17T14:48:05.728Z,16.96
2019-02-17T14:50:34.748Z,17.22
2019-02-17T14:53:03.804Z,17.15
2019-02-17T14:55:33.477Z,17.40
2019-02-17T14:58:05.535Z,16.94
2019-02-17T15:00:33.855Z,16.53
2019-02-17T15:03:02.892Z,16.99
2019-02-17T15:05:31.943Z,17.05
2019-02-17T15:08:01.033Z,16.90
2019-02-17T15:10:30.104Z,16.74
2019-02-17T15:13:01.869Z,17.20
2019-02-17T15:15:32.505Z,17.15
2019-02-17T15:18:01.625Z,17.20
2019-02-17T15:20:30.924Z,17.05
2019-02-17T15:23:00.065Z,16.96
2019-02-17T15:25:33.907Z,16.78
2019-02-17T15:28:06.465Z,16.54
2019-02-17T15:30:36.090Z,16.54
2019-02-17T15:33:09.021Z,16.45
2019-02-17T15:35:38.424Z,16.58
2019-02-17T15:38:08.562Z,16.35
2019-02-17T15:40:37.605Z,16.24
2019-02-17T15:43:06.699Z,16.34
2019-02-17T15:45:35.707Z,16.10
2019-02-17T15:48:05.020Z,16.22
2019-02-17T15:50:34.111Z,15.97
2019-02-17T15:53:03.134Z,15.87
2019-02-17T15:55:32.244Z,15.78
2019-02-17T15:58:01.262Z,15.61
2019-02-17T16:00:30.268Z,15.48
2019-02-17T16:02:59.302Z,15.17
2019-02-17T16:05:28.619Z,15.17
2019-02-17T16:07:57.639Z,15.12
2019-02-17T16:10:27.032Z,14.93
2019-02-17T16:12:56.418Z,14.84
2019-02-17T16:15:26.632Z,14.68
2019-02-17T16:17:55.675Z,14.79
2019-02-17T16:20:24.998Z,14.72
2019-02-17T16:22:54.005Z,14.63
2019-02-17T16:25:23.087Z,14.51
2019-02-17T16:27:52.463Z,14.38
2019-02-17T16:30:21.516Z,14.20
2019-02-17T16:32:50.644Z,14.31
2019-02-17T16:35:19.918Z,14.09
2019-02-17T16:37:48.928Z,14.01
2019-02-17T16:40:17.990Z,14.04
2019-02-17T16:42:47.019Z,13.69
2019-02-17T16:45:16.797Z,13.32
2019-02-17T16:47:46.145Z,12.99
2019-02-17T16:50:17.755Z,12.82
2019-02-17T16:52:46.759Z,12.74
2019-02-17T16:55:16.422Z,12.41
2019-02-17T16:57:45.546Z,12.27
2019-02-17T17:00:18.327Z,12.00
2019-02-17T17:02:47.403Z,11.72
2019-02-17T17:05:16.471Z,11.72
2019-02-17T17:07:45.901Z,11.78
2019-02-17T17:10:15.451Z,11.56
2019-02-17T17:12:44.503Z,11.41
2019-02-17T17:15:15.321Z,11.32
2019-02-17T17:17:44.744Z,11.10
2019-02-17T17:20:14.140Z,11.07
2019-02-17T17:22:43.597Z,10.96
2019-02-17T17:25:12.756Z,10.84
2019-02-17T17:27:41.817Z,10.66
2019-02-17T17:30:12.220Z,10.60
2019-02-17T17:32:41.269Z,10.57
2019-02-17T17:35:10.657Z,10.39
2019-02-17T17:37:39.822Z,10.22
2019-02-17T17:40:10.925Z,10.08
2019-02-17T17:42:40.273Z,10.06
2019-02-17T17:45:11.855Z,10.06
2019-02-17T17:47:40.930Z,10.12
2019-02-17T17:50:11.513Z,10.31
2019-02-17T17:52:40.676Z,10.30
2019-02-17T17:55:09.819Z,10.45
2019-02-17T17:57:39.165Z,10.54
2019-02-17T18:00:10.343Z,10.63
2019-02-17T18:02:39.490Z,10.61
2019-02-17T18:05:09.782Z,10.54
2019-02-17T18:07:39.352Z,10.41
2019-02-17T18:10:10.968Z,10.28
2019-02-17T18:12:40.398Z,10.18
2019-02-17T18:15:11.062Z,10.18
2019-02-17T18:17:40.419Z,10.23
2019-02-17T18:20:10.649Z,10.31
2019-02-17T18:22:39.721Z,10.33
2019-02-17T18:25:09.412Z,10.32
2019-02-17T18:27:38.543Z,10.27
2019-02-17T18:30:09.393Z,10.25
2019-02-17T18:32:38.873Z,10.19
2019-02-17T18:35:08.472Z,10.06
2019-02-17T18:37:38.310Z,10.01
2019-02-17T18:40:08.407Z,9.76
2019-02-17T18:42:37.417Z,9.61
2019-02-17T18:45:07.488Z,9.56
2019-02-17T18:47:37.070Z,9.53
2019-02-17T18:50:07.581Z,9.53
2019-02-17T18:52:36.667Z,9.47
2019-02-17T18:55:05.940Z,9.45
2019-02-17T18:57:35.188Z,9.33
2019-02-17T19:00:04.836Z,9.22
2019-02-17T19:02:33.874Z,9.09
2019-02-17T19:05:02.948Z,9.00
2019-02-17T19:07:32.029Z,8.91
2019-02-17T19:10:01.331Z,8.90
2019-02-17T19:12:30.409Z,8.90
2019-02-17T19:14:59.492Z,8.93
2019-02-17T19:17:28.870Z,9.18
2019-02-17T19:19:57.943Z,9.25
2019-02-17T19:22:26.959Z,9.36
2019-02-17T19:24:56.519Z,9.47
2019-02-17T19:27:25.562Z,9.82
2019-02-17T19:29:54.925Z,9.80
2019-02-17T19:32:23.948Z,9.79
2019-02-17T19:34:53.064Z,9.71
2019-02-17T19:37:22.110Z,9.61
2019-02-17T19:39:51.641Z,9.41
2019-02-17T19:42:20.756Z,9.33
2019-02-17T19:44:49.821Z,9.28
2019-02-17T19:47:19.119Z,9.33
2019-02-17T19:49:48.151Z,9.33
2019-02-17T19:52:17.278Z,9.22
2019-02-17T19:54:46.306Z,9.20
2019-02-17T19:57:15.316Z,9.06
2019-02-17T19:59:44.381Z,8.79
2019-02-17T20:02:13.452Z,8.48
2019-02-17T20:04:45.464Z,8.44
2019-02-17T20:07:14.555Z,8.38
2019-02-17T20:09:43.974Z,8.38
2019-02-17T20:12:13.251Z,8.29
2019-02-17T20:14:42.269Z,8.28
2019-02-17T20:17:11.285Z,8.32
2019-02-17T20:19:40.581Z,8.36
2019-02-17T20:22:09.622Z,8.39
2019-02-17T20:24:38.684Z,8.34
2019-02-17T20:27:07.755Z,8.45
2019-02-17T20:29:37.595Z,8.53
2019-02-17T20:32:07.003Z,8.58
2019-02-17T20:34:36.082Z,8.45
2019-02-17T20:37:05.451Z,8.37
2019-02-17T20:39:34.553Z,8.15
2019-02-17T20:42:03.637Z,8.04
2019-02-17T20:44:32.751Z,7.88
2019-02-17T20:47:01.982Z,7.79
2019-02-17T20:49:32.875Z,7.75
2019-02-17T20:52:02.041Z,7.72
2019-02-17T20:54:31.241Z,7.72
2019-02-17T20:57:00.286Z,7.74
2019-02-17T20:59:29.657Z,7.75
2019-02-17T21:01:58.710Z,7.70
2019-02-17T21:04:27.761Z,7.76
2019-02-17T21:06:56.968Z,7.86
2019-02-17T21:09:26.568Z,7.98
2019-02-17T21:11:55.992Z,7.95
2019-02-17T21:14:25.330Z,7.88
2019-02-17T21:16:54.336Z,7.81
2019-02-17T21:19:23.988Z,7.72
2019-02-17T21:21:53.456Z,7.70
2019-02-17T21:24:23.002Z,7.68
2019-02-17T21:26:52.102Z,7.63
2019-02-17T21:29:21.296Z,7.53
2019-02-17T21:31:50.313Z,7.49
2019-02-17T21:34:19.732Z,7.44
2019-02-17T21:36:48.856Z,7.41
2019-02-17T21:39:18.165Z,7.41
2019-02-17T21:41:47.938Z,7.40
2019-02-17T21:44:16.976Z,7.37
2019-02-17T21:46:46.070Z,7.41
2019-02-17T21:49:15.126Z,7.45
2019-02-17T21:51:44.208Z,7.45
2019-02-17T21:54:13.304Z,7.43
2019-02-17T21:56:42.439Z,7.43
2019-02-17T21:59:11.850Z,7.41
2019-02-17T22:01:40.907Z,7.30
2019-02-17T22:04:09.902Z,6.99
2019-02-17T22:06:39.003Z,6.71
2019-02-17T22:09:08.010Z,6.80
2019-02-17T22:11:37.166Z,6.79
2019-02-17T22:14:06.488Z,6.75
2019-02-17T22:16:35.983Z,6.90
2019-02-17T22:19:05.414Z,6.97
2019-02-17T22:21:34.819Z,6.94
2019-02-17T22:24:03.888Z,6.99
2019-02-17T22:26:33.099Z,7.21
2019-02-17T22:29:02.728Z,7.13
2019-02-17T22:31:31.732Z,7.05
2019-02-17T22:34:01.113Z,7.01
2019-02-17T22:36:30.516Z,6.97
2019-02-17T22:39:00.224Z,6.98
2019-02-17T22:41:29.222Z,6.85
2019-02-17T22:43:58.535Z,6.77
2019-02-17T22:46:27.573Z,6.71
2019-02-17T22:48:57.381Z,6.59
2019-02-17T22:51:26.431Z,6.50
2019-02-17T22:53:59.007Z,6.49
2019-02-17T22:56:28.514Z,6.42
2019-02-17T22:58:57.756Z,6.15
2019-02-17T23:01:30.806Z,6.02
2019-02-17T23:04:00.608Z,5.91
2019-02-17T23:06:29.665Z,5.89
2019-02-17T23:08:58.798Z,5.90
2019-02-17T23:11:28.107Z,5.94
2019-02-17T23:13:58.023Z,5.98
2019-02-17T23:16:27.142Z,6.05
2019-02-17T23:18:56.556Z,6.02
2019-02-17T23:21:25.581Z,5.99
2019-02-17T23:23:54.631Z,5.94
2019-02-17T23:26:23.651Z,5.76
2019-02-17T23:28:52.700Z,5.63
2019-02-17T23:31:22.241Z,5.65
2019-02-17T23:33:51.247Z,5.62
2019-02-17T23:36:20.720Z,5.51
2019-02-17T23:38:50.173Z,5.43
2019-02-17T23:41:19.275Z,5.39
2019-02-17T23:43:48.640Z,5.45
2019-02-17T23:46:18.014Z,5.55
2019-02-17T23:48:47.645Z,5.61
2019-02-17T23:51:16.679Z,5.65
2019-02-17T23:53:46.102Z,5.68
2019-02-17T23:56:15.242Z,6.00
2019-02-17T23:58:44.259Z,5.86
